sensor_id;sensor_type;location;lat;lon;timestamp;pressure;altitude;pressure_sealevel;temperature;humidity
76590;BME280;65471;55.908;37.880;2023-12-20T00:02:17;97942.81;;;2.20;100.00
76590;BME280;65471;55.908;37.880;2023-12-20T00:04:44;97929.25;;;2.21;100.00
76590;BME280;65471;55.908;37.880;2023-12-20T00:07:12;97932.38;;;2.18;100.00
76590;BME280;65471;55.908;37.880;2023-12-20T00:09:39;97946.97;;;2.16;100.00
76590;BME280;65471;55.908;37.880;2023-12-20T00:12:06;97930.81;;;2.11;100.00
76590;BME280;65471;55.908;37.880;2023-12-20T00:14:33;97940.44;;;2.12;100.00
76590;BME280;65471;55.908;37.880;2023-12-20T00:17:00;97931.25;;;2.07;100.00
76590;BME280;65471;55.908;37.880;2023-12-20T00:19:27;97939.69;;;2.04;100.00
76590;BME280;65471;55.908;37.880;2023-12-20T00:21:54;97940.28;;;2.06;100.00
76590;BME280;65471;55.908;37.880;2023-12-20T00:24:21;97939.25;;;2.07;100.00
76590;BME280;65471;55.908;37.880;2023-12-20T00:26:48;97948.28;;;2.06;100.00
76590;BME280;65471;55.908;37.880;2023-12-20T00:29:15;97950.59;;;2.03;100.00
76590;BME280;65471;55.908;37.880;2023-12-20T00:31:42;97961.25;;;2.03;100.00
76590;BME280;65471;55.908;37.880;2023-12-20T00:34:09;97956.50;;;2.05;100.00
76590;BME280;65471;55.908;37.880;2023-12-20T00:36:36;97945.31;;;1.96;100.00
76590;BME280;65471;55.908;37.880;2023-12-20T00:39:03;97958.53;;;2.10;100.00
76590;BME280;65471;55.908;37.880;2023-12-20T00:41:31;97956.06;;;2.08;100.00
76590;BME280;65471;55.908;37.880;2023-12-20T00:43:58;97970.56;;;2.12;100.00
76590;BME280;65471;55.908;37.880;2023-12-20T00:46:25;97978.34;;;2.14;100.00
76590;BME280;65471;55.908;37.880;2023-12-20T00:48:52;97959.84;;;2.00;100.00
76590;BME280;65471;55.908;37.880;2023-12-20T00:51:22;97965.31;;;2.05;100.00
76590;BME280;65471;55.908;37.880;2023-12-20T00:53:50;97977.94;;;2.17;100.00
76590;BME280;65471;55.908;37.880;2023-12-20T00:56:17;97969.94;;;2.17;100.00
76590;BME280;65471;55.908;37.880;2023-12-20T00:58:44;97946.50;;;2.19;100.00
76590;BME280;65471;55.908;37.880;2023-12-20T01:01:11;97958.94;;;2.25;100.00
76590;BME280;65471;55.908;37.880;2023-12-20T01:03:38;97957.22;;;2.31;100.00
76590;BME280;65471;55.908;37.880;2023-12-20T01:06:05;97936.75;;;2.13;100.00
76590;BME280;65471;55.908;37.880;2023-12-20T01:08:33;97959.09;;;2.30;100.00
76590;BME280;65471;55.908;37.880;2023-12-20T01:11:04;97951.56;;;2.27;100.00
76590;BME280;65471;55.908;37.880;2023-12-20T01:13:31;97948.88;;;2.27;100.00
76590;BME280;65471;55.908;37.880;2023-12-20T01:15:58;97947.69;;;2.23;100.00
76590;BME280;65471;55.908;37.880;2023-12-20T01:18:26;97933.19;;;2.19;100.00
76590;BME280;65471;55.908;37.880;2023-12-20T01:20:53;97931.53;;;2.18;100.00
76590;BME280;65471;55.908;37.880;2023-12-20T01:23:20;97937.78;;;2.12;100.00
76590;BME280;65471;55.908;37.880;2023-12-20T01:25:47;97937.03;;;2.04;100.00
76590;BME280;65471;55.908;37.880;2023-12-20T01:28:15;97931.94;;;2.03;100.00
76590;BME280;65471;55.908;37.880;2023-12-20T01:30:42;97929.09;;;1.98;100.00
76590;BME280;65471;55.908;37.880;2023-12-20T01:33:09;97932.59;;;1.98;100.00
76590;BME280;65471;55.908;37.880;2023-12-20T01:35:36;97932.00;;;1.96;100.00
76590;BME280;65471;55.908;37.880;2023-12-20T01:38:04;97923.41;;;1.94;100.00
76590;BME280;65471;55.908;37.880;2023-12-20T01:40:31;97920.88;;;1.99;100.00
76590;BME280;65471;55.908;37.880;2023-12-20T01:42:59;97919.13;;;1.93;100.00
76590;BME280;65471;55.908;37.880;2023-12-20T01:45:27;97924.28;;;1.88;100.00
76590;BME280;65471;55.908;37.880;2023-12-20T01:47:57;97919.78;;;1.88;100.00
76590;BME280;65471;55.908;37.880;2023-12-20T01:50:25;97912.81;;;1.87;100.00
76590;BME280;65471;55.908;37.880;2023-12-20T01:52:53;97903.63;;;1.83;100.00
76590;BME280;65471;55.908;37.880;2023-12-20T01:55:25;97902.66;;;1.78;100.00
76590;BME280;65471;55.908;37.880;2023-12-20T01:57:53;97885.94;;;1.70;100.00
76590;BME280;65471;55.908;37.880;2023-12-20T02:00:21;97895.13;;;1.75;100.00
76590;BME280;65471;55.908;37.880;2023-12-20T02:02:51;97891.19;;;1.77;100.00
76590;BME280;65471;55.908;37.880;2023-12-20T02:05:20;97893.03;;;1.77;100.00
76590;BME280;65471;55.908;37.880;2023-12-20T02:07:47;97896.16;;;1.73;100.00
76590;BME280;65471;55.908;37.880;2023-12-20T02:10:15;97894.09;;;1.76;100.00
76590;BME280;65471;55.908;37.880;2023-12-20T02:12:44;97901.03;;;1.77;100.00
76590;BME280;65471;55.908;37.880;2023-12-20T02:15:12;97900.00;;;1.78;100.00
76590;BME280;65471;55.908;37.880;2023-12-20T02:17:39;97896.31;;;1.79;100.00
76590;BME280;65471;55.908;37.880;2023-12-20T02:20:07;97891.34;;;1.82;100.00
76590;BME280;65471;55.908;37.880;2023-12-20T02:22:34;97882.69;;;1.87;100.00
76590;BME280;65471;55.908;37.880;2023-12-20T02:25:01;97884.09;;;1.89;100.00
76590;BME280;65471;55.908;37.880;2023-12-20T02:27:30;97872.69;;;1.82;100.00
76590;BME280;65471;55.908;37.880;2023-12-20T02:29:57;97879.19;;;1.86;100.00
76590;BME280;65471;55.908;37.880;2023-12-20T02:32:25;97885.13;;;1.88;100.00
76590;BME280;65471;55.908;37.880;2023-12-20T02:34:55;97887.81;;;1.88;100.00
76590;BME280;65471;55.908;37.880;2023-12-20T02:37:23;97879.34;;;1.92;100.00
76590;BME280;65471;55.908;37.880;2023-12-20T02:39:51;97890.59;;;1.94;100.00
76590;BME280;65471;55.908;37.880;2023-12-20T02:42:18;97879.34;;;1.92;100.00
76590;BME280;65471;55.908;37.880;2023-12-20T02:44:45;97877.50;;;1.92;100.00
76590;BME280;65471;55.908;37.880;2023-12-20T02:47:12;97884.91;;;1.90;100.00
76590;BME280;65471;55.908;37.880;2023-12-20T02:49:39;97882.47;;;1.88;100.00
76590;BME280;65471;55.908;37.880;2023-12-20T02:52:06;97884.91;;;1.90;100.00
76590;BME280;65471;55.908;37.880;2023-12-20T02:54:33;97890.47;;;1.88;100.00
76590;BME280;65471;55.908;37.880;2023-12-20T02:57:00;97899.44;;;1.94;100.00
76590;BME280;65471;55.908;37.880;2023-12-20T02:59:27;97891.09;;;1.84;100.00
76590;BME280;65471;55.908;37.880;2023-12-20T03:01:54;97909.63;;;1.97;100.00
76590;BME280;65471;55.908;37.880;2023-12-20T03:04:21;97908.84;;;1.97;100.00
76590;BME280;65471;55.908;37.880;2023-12-20T03:06:48;97900.63;;;1.98;100.00
76590;BME280;65471;55.908;37.880;2023-12-20T03:09:15;97894.59;;;2.03;100.00
76590;BME280;65471;55.908;37.880;2023-12-20T03:11:42;97905.63;;;2.06;100.00
76590;BME280;65471;55.908;37.880;2023-12-20T03:14:09;97896.38;;;2.09;100.00
76590;BME280;65471;55.908;37.880;2023-12-20T03:16:36;97887.34;;;2.10;100.00
76590;BME280;65471;55.908;37.880;2023-12-20T03:19:03;97880.31;;;1.97;100.00
76590;BME280;65471;55.908;37.880;2023-12-20T03:21:30;97893.34;;;2.05;100.00
76590;BME280;65471;55.908;37.880;2023-12-20T03:23:57;97887.88;;;2.00;100.00
76590;BME280;65471;55.908;37.880;2023-12-20T03:26:24;97890.53;;;2.00;100.00
76590;BME280;65471;55.908;37.880;2023-12-20T03:28:51;97896.47;;;2.02;100.00
76590;BME280;65471;55.908;37.880;2023-12-20T03:31:18;97896.59;;;2.07;100.00
76590;BME280;65471;55.908;37.880;2023-12-20T03:33:46;97888.16;;;2.11;100.00
76590;BME280;65471;55.908;37.880;2023-12-20T03:36:13;97899.41;;;2.13;100.00
76590;BME280;65471;55.908;37.880;2023-12-20T03:38:40;97897.94;;;2.17;100.00
76590;BME280;65471;55.908;37.880;2023-12-20T03:41:07;97904.88;;;2.18;100.00
76590;BME280;65471;55.908;37.880;2023-12-20T03:43:34;97896.75;;;2.13;100.00
76590;BME280;65471;55.908;37.880;2023-12-20T03:46:03;97901.47;;;2.11;100.00
76590;BME280;65471;55.908;37.880;2023-12-20T03:48:31;97904.16;;;2.11;100.00
76590;BME280;65471;55.908;37.880;2023-12-20T03:50:58;97901.47;;;2.11;100.00
76590;BME280;65471;55.908;37.880;2023-12-20T03:53:25;97908.00;;;2.15;100.00
76590;BME280;65471;55.908;37.880;2023-12-20T03:55:52;97896.53;;;2.14;100.00
76590;BME280;65471;55.908;37.880;2023-12-20T03:58:19;97898.97;;;2.16;100.00
76590;BME280;65471;55.908;37.880;2023-12-20T04:00:46;97904.31;;;2.16;100.00
76590;BME280;65471;55.908;37.880;2023-12-20T04:03:14;97911.13;;;2.12;100.00
76590;BME280;65471;55.908;37.880;2023-12-20T04:05:41;97907.66;;;2.11;100.00
76590;BME280;65471;55.908;37.880;2023-12-20T04:08:09;97895.06;;;2.00;100.00
76590;BME280;65471;55.908;37.880;2023-12-20T04:10:36;97907.25;;;2.07;100.00
76590;BME280;65471;55.908;37.880;2023-12-20T04:13:04;97896.03;;;2.05;100.00
76590;BME280;65471;55.908;37.880;2023-12-20T04:15:31;97890.75;;;1.99;100.00
76590;BME280;65471;55.908;37.880;2023-12-20T04:17:58;97903.84;;;2.00;100.00
76590;BME280;65471;55.908;37.880;2023-12-20T04:20:26;97908.75;;;2.03;100.00
76590;BME280;65471;55.908;37.880;2023-12-20T04:22:52;97895.19;;;2.05;100.00
76590;BME280;65471;55.908;37.880;2023-12-20T04:25:20;97891.94;;;2.03;100.00
76590;BME280;65471;55.908;37.880;2023-12-20T04:27:47;97894.22;;;1.99;100.00
76590;BME280;65471;55.908;37.880;2023-12-20T04:30:14;97901.66;;;1.97;100.00
76590;BME280;65471;55.908;37.880;2023-12-20T04:32:41;97902.00;;;2.01;100.00
76590;BME280;65471;55.908;37.880;2023-12-20T04:35:08;97900.28;;;2.06;100.00
76590;BME280;65471;55.908;37.880;2023-12-20T04:37:36;97890.47;;;2.07;100.00
76590;BME280;65471;55.908;37.880;2023-12-20T04:40:03;97888.03;;;2.05;100.00
76590;BME280;65471;55.908;37.880;2023-12-20T04:42:32;97897.84;;;2.05;100.00
76590;BME280;65471;55.908;37.880;2023-12-20T04:44:59;97865.41;;;1.89;100.00
76590;BME280;65471;55.908;37.880;2023-12-20T04:47:26;97894.72;;;2.08;100.00
76590;BME280;65471;55.908;37.880;2023-12-20T04:49:53;97899.41;;;2.13;100.00
76590;BME280;65471;55.908;37.880;2023-12-20T04:52:20;97908.00;;;2.15;100.00
76590;BME280;65471;55.908;37.880;2023-12-20T04:54:48;97902.31;;;2.11;100.00
76590;BME280;65471;55.908;37.880;2023-12-20T04:57:15;97903.13;;;2.12;100.00
76590;BME280;65471;55.908;37.880;2023-12-20T04:59:42;97906.22;;;2.09;100.00
76590;BME280;65471;55.908;37.880;2023-12-20T05:02:09;97908.50;;;2.05;100.00
76590;BME280;65471;55.908;37.880;2023-12-20T05:04:36;97919.78;;;2.07;100.00
76590;BME280;65471;55.908;37.880;2023-12-20T05:07:03;97910.72;;;2.08;100.00
76590;BME280;65471;55.908;37.880;2023-12-20T05:09:32;97917.34;;;2.05;100.00
76590;BME280;65471;55.908;37.880;2023-12-20T05:11:59;97900.44;;;1.93;100.00
76590;BME280;65471;55.908;37.880;2023-12-20T05:14:25;97915.19;;;1.96;100.00
76590;BME280;65471;55.908;37.880;2023-12-20T05:16:52;97926.66;;;1.96;100.00
76590;BME280;65471;55.908;37.880;2023-12-20T05:19:19;97925.84;;;1.96;100.00
76590;BME280;65471;55.908;37.880;2023-12-20T05:21:46;97921.94;;;1.98;100.00
76590;BME280;65471;55.908;37.880;2023-12-20T05:24:13;97927.28;;;1.98;100.00
76590;BME280;65471;55.908;37.880;2023-12-20T05:26:41;97928.06;;;1.99;100.00
76590;BME280;65471;55.908;37.880;2023-12-20T05:29:08;97934.59;;;2.03;100.00
76590;BME280;65471;55.908;37.880;2023-12-20T05:31:35;97933.78;;;2.02;100.00
76590;BME280;65471;55.908;37.880;2023-12-20T05:34:02;97937.47;;;2.01;100.00
76590;BME280;65471;55.908;37.880;2023-12-20T05:36:29;97940.94;;;2.02;100.00
76590;BME280;65471;55.908;37.880;2023-12-20T05:38:56;97940.59;;;1.98;100.00
76590;BME280;65471;55.908;37.880;2023-12-20T05:41:23;97943.03;;;2.00;100.00
76590;BME280;65471;55.908;37.880;2023-12-20T05:43:50;97940.16;;;2.01;100.00
76590;BME280;65471;55.908;37.880;2023-12-20T05:46:17;97934.66;;;1.96;100.00
76590;BME280;65471;55.908;37.880;2023-12-20T05:48:44;97943.03;;;2.00;100.00
76590;BME280;65471;55.908;37.880;2023-12-20T05:51:11;97928.88;;;1.99;100.00
76590;BME280;65471;55.908;37.880;2023-12-20T05:53:39;97935.03;;;2.00;100.00
76590;BME280;65471;55.908;37.880;2023-12-20T05:56:06;97941.78;;;2.02;100.00
76590;BME280;65471;55.908;37.880;2023-12-20T05:58:33;97944.22;;;2.04;100.00
76590;BME280;65471;55.908;37.880;2023-12-20T06:01:00;97939.69;;;2.04;100.00
76590;BME280;65471;55.908;37.880;2023-12-20T06:03:27;97938.44;;;2.07;100.00
76590;BME280;65471;55.908;37.880;2023-12-20T06:05:54;97945.19;;;2.10;100.00
76590;BME280;65471;55.908;37.880;2023-12-20T06:08:38;97941.69;;;2.09;100.00
76590;BME280;65471;55.908;37.880;2023-12-20T06:11:05;97946.66;;;2.05;100.00
76590;BME280;65471;55.908;37.880;2023-12-20T06:13:32;97942.19;;;1.99;100.00
76590;BME280;65471;55.908;37.880;2023-12-20T06:15:59;97931.53;;;1.99;100.00
76590;BME280;65471;55.908;37.880;2023-12-20T06:18:27;97933.84;;;1.96;100.00
76590;BME280;65471;55.908;37.880;2023-12-20T06:20:54;97944.75;;;1.94;100.00
76590;BME280;65471;55.908;37.880;2023-12-20T06:23:21;97951.66;;;1.95;100.00
76590;BME280;65471;55.908;37.880;2023-12-20T06:25:48;97939.00;;;1.90;100.00
76590;BME280;65471;55.908;37.880;2023-12-20T06:28:15;97956.81;;;1.97;100.00
76590;BME280;65471;55.908;37.880;2023-12-20T06:30:42;97956.94;;;2.02;100.00
76590;BME280;65471;55.908;37.880;2023-12-20T06:33:09;97953.59;;;2.06;100.00
76590;BME280;65471;55.908;37.880;2023-12-20T06:35:38;97964.03;;;2.08;99.82
76590;BME280;65471;55.908;37.880;2023-12-20T06:38:05;97961.75;;;2.12;100.00
76590;BME280;65471;55.908;37.880;2023-12-20T06:40:32;97968.50;;;2.14;100.00
76590;BME280;65471;55.908;37.880;2023-12-20T06:42:59;97964.38;;;2.18;99.78
76590;BME280;65471;55.908;37.880;2023-12-20T06:45:37;97960.66;;;2.19;99.83
76590;BME280;65471;55.908;37.880;2023-12-20T06:48:05;97971.13;;;2.21;99.79
76590;BME280;65471;55.908;37.880;2023-12-20T06:50:32;97963.69;;;2.23;99.82
76590;BME280;65471;55.908;37.880;2023-12-20T06:52:59;97958.53;;;2.28;99.84
76590;BME280;65471;55.908;37.880;2023-12-20T06:55:26;97964.22;;;2.32;99.92
76590;BME280;65471;55.908;37.880;2023-12-20T06:57:54;97958.13;;;2.24;99.34
76590;BME280;65471;55.908;37.880;2023-12-20T07:00:21;97962.94;;;2.34;99.52
76590;BME280;65471;55.908;37.880;2023-12-20T07:02:48;97968.88;;;2.36;99.44
76590;BME280;65471;55.908;37.880;2023-12-20T07:05:18;97978.50;;;2.37;99.68
76590;BME280;65471;55.908;37.880;2023-12-20T07:07:47;97975.16;;;2.42;99.57
76590;BME280;65471;55.908;37.880;2023-12-20T07:10:15;97954.03;;;2.40;99.47
76590;BME280;65471;55.908;37.880;2023-12-20T07:12:43;97963.31;;;2.38;99.40
76590;BME280;65471;55.908;37.880;2023-12-20T07:15:11;97959.53;;;2.46;99.26
76590;BME280;65471;55.908;37.880;2023-12-20T07:17:38;97970.78;;;2.48;99.29
76590;BME280;65471;55.908;37.880;2023-12-20T07:20:05;97967.81;;;2.56;98.98
76590;BME280;65471;55.908;37.880;2023-12-20T07:22:36;97962.03;;;2.59;98.88
76590;BME280;65471;55.908;37.880;2023-12-20T07:25:04;97962.13;;;2.52;98.60
76590;BME280;65471;55.908;37.880;2023-12-20T07:27:31;97964.34;;;2.55;98.32
76590;BME280;65471;55.908;37.880;2023-12-20T07:29:58;97975.47;;;2.52;98.62
76590;BME280;65471;55.908;37.880;2023-12-20T07:32:25;97970.94;;;2.53;98.30
76590;BME280;65471;55.908;37.880;2023-12-20T07:34:52;97960.94;;;2.48;98.70
76590;BME280;65471;55.908;37.880;2023-12-20T07:37:20;97977.06;;;2.53;98.59
76590;BME280;65471;55.908;37.880;2023-12-20T07:39:48;97968.44;;;2.39;98.42
76590;BME280;65471;55.908;37.880;2023-12-20T07:42:15;97991.09;;;2.49;98.28
76590;BME280;65471;55.908;37.880;2023-12-20T07:44:42;97986.78;;;2.48;98.07
76590;BME280;65471;55.908;37.880;2023-12-20T07:47:09;97995.84;;;2.47;97.94
76590;BME280;65471;55.908;37.880;2023-12-20T07:49:36;97996.44;;;2.49;98.42
76590;BME280;65471;55.908;37.880;2023-12-20T07:52:03;97991.66;;;2.51;97.68
76590;BME280;65471;55.908;37.880;2023-12-20T07:54:30;98000.88;;;2.55;97.99
76590;BME280;65471;55.908;37.880;2023-12-20T07:56:57;97998.81;;;2.57;97.35
76590;BME280;65471;55.908;37.880;2023-12-20T07:59:24;97996.06;;;2.64;97.76
76590;BME280;65471;55.908;37.880;2023-12-20T08:01:58;97992.34;;;2.65;97.11
76590;BME280;65471;55.908;37.880;2023-12-20T08:04:26;97998.94;;;2.62;96.84
76590;BME280;65471;55.908;37.880;2023-12-20T08:06:54;98005.09;;;2.63;96.91
76590;BME280;65471;55.908;37.880;2023-12-20T08:09:21;98006.72;;;2.64;96.96
76590;BME280;65471;55.908;37.880;2023-12-20T08:11:48;98000.94;;;2.67;96.81
76590;BME280;65471;55.908;37.880;2023-12-20T08:14:15;97993.91;;;2.72;97.02
76590;BME280;65471;55.908;37.880;2023-12-20T08:16:43;98006.91;;;2.81;96.74
76590;BME280;65471;55.908;37.880;2023-12-20T08:19:10;98010.31;;;2.88;96.13
76590;BME280;65471;55.908;37.880;2023-12-20T08:21:37;98006.75;;;2.94;96.01
76590;BME280;65471;55.908;37.880;2023-12-20T08:24:05;98005.03;;;3.00;95.93
76590;BME280;65471;55.908;37.880;2023-12-20T08:26:32;98011.41;;;2.99;95.52
76590;BME280;65471;55.908;37.880;2023-12-20T08:28:59;98014.53;;;2.96;95.79
76590;BME280;65471;55.908;37.880;2023-12-20T08:31:28;98000.91;;;2.85;95.18
76590;BME280;65471;55.908;37.880;2023-12-20T08:33:56;98024.19;;;2.97;95.31
76590;BME280;65471;55.908;37.880;2023-12-20T08:36:23;98010.00;;;2.96;94.93
76590;BME280;65471;55.908;37.880;2023-12-20T08:38:51;98005.91;;;2.93;94.61
76590;BME280;65471;55.908;37.880;2023-12-20T08:41:18;97999.78;;;2.93;94.22
76590;BME280;65471;55.908;37.880;2023-12-20T08:43:45;97990.97;;;2.92;93.99
76590;BME280;65471;55.908;37.880;2023-12-20T08:46:14;97997.91;;;2.93;93.86
76590;BME280;65471;55.908;37.880;2023-12-20T08:48:41;97996.06;;;2.94;94.32
76590;BME280;65471;55.908;37.880;2023-12-20T08:51:10;97990.75;;;2.94;94.18
76590;BME280;65471;55.908;37.880;2023-12-20T08:53:37;97975.25;;;2.84;93.81
76590;BME280;65471;55.908;37.880;2023-12-20T08:56:04;98012.56;;;2.91;94.34
76590;BME280;65471;55.908;37.880;2023-12-20T08:58:31;97999.78;;;2.93;94.20
76590;BME280;65471;55.908;37.880;2023-12-20T09:01:00;98010.84;;;2.97;94.12
76590;BME280;65471;55.908;37.880;2023-12-20T09:03:27;98004.31;;;2.92;94.25
76590;BME280;65471;55.908;37.880;2023-12-20T09:05:54;97998.50;;;2.96;94.02
76590;BME280;65471;55.908;37.880;2023-12-20T09:08:21;97993.41;;;2.94;94.18
76590;BME280;65471;55.908;37.880;2023-12-20T09:10:48;97999.69;;;3.00;94.16
76590;BME280;65471;55.908;37.880;2023-12-20T09:13:15;97997.38;;;3.03;94.23
76590;BME280;65471;55.908;37.880;2023-12-20T09:15:43;97994.47;;;3.05;93.77
76590;BME280;65471;55.908;37.880;2023-12-20T09:18:10;97977.50;;;2.99;94.01
76590;BME280;65471;55.908;37.880;2023-12-20T09:20:37;97985.31;;;3.01;93.78
76590;BME280;65471;55.908;37.880;2023-12-20T09:23:09;97988.19;;;2.99;93.45
76590;BME280;65471;55.908;37.880;2023-12-20T09:25:36;97998.44;;;3.02;93.49
76590;BME280;65471;55.908;37.880;2023-12-20T09:28:03;97987.88;;;3.07;93.66
76590;BME280;65471;55.908;37.880;2023-12-20T09:30:30;97982.75;;;3.06;93.29
76590;BME280;65471;55.908;37.880;2023-12-20T09:32:58;97990.78;;;3.06;93.65
76590;BME280;65471;55.908;37.880;2023-12-20T09:35:25;97986.03;;;3.08;93.64
76590;BME280;65471;55.908;37.880;2023-12-20T09:37:53;97986.84;;;3.08;93.16
76590;BME280;65471;55.908;37.880;2023-12-20T09:40:20;97993.09;;;3.02;93.18
76590;BME280;65471;55.908;37.880;2023-12-20T09:42:54;97998.06;;;2.99;93.18
76590;BME280;65471;55.908;37.880;2023-12-20T09:45:23;97996.19;;;2.99;93.44
76590;BME280;65471;55.908;37.880;2023-12-20T09:47:54;98000.97;;;2.97;93.54
76590;BME280;65471;55.908;37.880;2023-12-20T09:50:22;97998.88;;;2.99;93.33
76590;BME280;65471;55.908;37.880;2023-12-20T09:52:52;97987.03;;;2.95;93.59
76590;BME280;65471;55.908;37.880;2023-12-20T09:55:19;97988.56;;;3.03;93.68
76590;BME280;65471;55.908;37.880;2023-12-20T09:57:48;97987.28;;;3.05;93.42
76590;BME280;65471;55.908;37.880;2023-12-20T10:00:16;97992.88;;;3.04;93.53
76590;BME280;65471;55.908;37.880;2023-12-20T10:02:56;97990.44;;;3.02;93.64
76590;BME280;65471;55.908;37.880;2023-12-20T10:05:33;97987.53;;;3.04;93.49
76590;BME280;65471;55.908;37.880;2023-12-20T10:08:01;97999.81;;;3.05;93.60
76590;BME280;65471;55.908;37.880;2023-12-20T10:10:30;97995.75;;;3.02;93.70
76590;BME280;65471;55.908;37.880;2023-12-20T10:13:12;97981.78;;;2.88;93.77
76590;BME280;65471;55.908;37.880;2023-12-20T10:15:40;98002.22;;;2.94;93.44
76590;BME280;65471;55.908;37.880;2023-12-20T10:18:09;97981.16;;;2.86;93.83
76590;BME280;65471;55.908;37.880;2023-12-20T10:20:36;97990.28;;;2.97;93.87
76590;BME280;65471;55.908;37.880;2023-12-20T10:23:04;97973.16;;;2.86;93.78
76590;BME280;65471;55.908;37.880;2023-12-20T10:25:30;97994.81;;;2.97;93.75
76590;BME280;65471;55.908;37.880;2023-12-20T10:28:13;97991.31;;;2.96;93.71
76590;BME280;65471;55.908;37.880;2023-12-20T10:30:41;97984.91;;;2.85;93.63
76590;BME280;65471;55.908;37.880;2023-12-20T10:33:09;97994.44;;;2.93;94.09
76590;BME280;65471;55.908;37.880;2023-12-20T10:35:38;98003.63;;;2.97;94.09
76590;BME280;65471;55.908;37.880;2023-12-20T10:38:11;98001.69;;;3.04;94.07
76590;BME280;65471;55.908;37.880;2023-12-20T10:40:40;97991.91;;;2.98;94.10
76590;BME280;65471;55.908;37.880;2023-12-20T10:43:08;98004.13;;;3.06;93.92
76590;BME280;65471;55.908;37.880;2023-12-20T10:45:36;98009.22;;;3.07;93.77
76590;BME280;65471;55.908;37.880;2023-12-20T10:48:03;98006.34;;;3.09;93.87
76590;BME280;65471;55.908;37.880;2023-12-20T10:50:31;98010.25;;;3.06;93.88
76590;BME280;65471;55.908;37.880;2023-12-20T10:52:59;97996.72;;;3.08;93.99
76590;BME280;65471;55.908;37.880;2023-12-20T10:55:27;97992.75;;;3.10;93.97
76590;BME280;65471;55.908;37.880;2023-12-20T10:58:01;97999.72;;;3.11;94.04
76590;BME280;65471;55.908;37.880;2023-12-20T11:00:29;97987.75;;;3.02;93.31
76590;BME280;65471;55.908;37.880;2023-12-20T11:03:01;97991.81;;;3.05;93.88
76590;BME280;65471;55.908;37.880;2023-12-20T11:05:52;97987.53;;;3.04;94.00
76590;BME280;65471;55.908;37.880;2023-12-20T11:08:41;97983.78;;;3.05;93.92
76590;BME280;65471;55.908;37.880;2023-12-20T11:11:28;97978.56;;;2.98;94.01
76590;BME280;65471;55.908;37.880;2023-12-20T11:14:03;97982.28;;;2.97;93.55
76590;BME280;65471;55.908;37.880;2023-12-20T11:16:33;97995.41;;;3.10;93.52
76590;BME280;65471;55.908;37.880;2023-12-20T11:19:14;98001.44;;;3.06;93.59
76590;BME280;65471;55.908;37.880;2023-12-20T11:21:41;97996.47;;;3.09;93.43
76590;BME280;65471;55.908;37.880;2023-12-20T11:24:09;97993.22;;;3.07;93.65
76590;BME280;65471;55.908;37.880;2023-12-20T11:26:36;97983.56;;;3.06;93.24
76590;BME280;65471;55.908;37.880;2023-12-20T11:34:59;97993.09;;;3.02;93.73
76590;BME280;65471;55.908;37.880;2023-12-20T11:37:29;98003.41;;;2.99;93.31
76590;BME280;65471;55.908;37.880;2023-12-20T11:40:07;98003.06;;;2.95;93.18
76590;BME280;65471;55.908;37.880;2023-12-20T11:42:40;98003.63;;;2.97;93.25
76590;BME280;65471;55.908;37.880;2023-12-20T11:45:14;98004.66;;;2.96;93.49
76590;BME280;65471;55.908;37.880;2023-12-20T11:47:44;98008.50;;;3.00;93.35
76590;BME280;65471;55.908;37.880;2023-12-20T11:50:13;98007.47;;;3.01;93.33
76590;BME280;65471;55.908;37.880;2023-12-20T11:52:40;98011.19;;;3.00;93.35
76590;BME280;65471;55.908;37.880;2023-12-20T11:55:07;98019.41;;;2.99;93.75
76590;BME280;65471;55.908;37.880;2023-12-20T11:57:35;98020.44;;;2.98;93.60
76590;BME280;65471;55.908;37.880;2023-12-20T12:00:04;98008.97;;;2.97;93.68
76590;BME280;65471;55.908;37.880;2023-12-20T12:02:31;98020.69;;;2.96;93.66
76590;BME280;65471;55.908;37.880;2023-12-20T12:05:02;98026.00;;;2.96;93.45
76590;BME280;65471;55.908;37.880;2023-12-20T12:07:34;98013.59;;;2.90;93.27
76590;BME280;65471;55.908;37.880;2023-12-20T12:10:02;98017.06;;;2.90;93.58
76590;BME280;65471;55.908;37.880;2023-12-20T12:12:30;98008.94;;;2.85;93.63
76590;BME280;65471;55.908;37.880;2023-12-20T12:14:59;98009.16;;;2.84;92.97
76590;BME280;65471;55.908;37.880;2023-12-20T12:17:26;98008.81;;;2.92;93.52
76590;BME280;65471;55.908;37.880;2023-12-20T12:20:02;98002.69;;;2.91;93.50
76590;BME280;65471;55.908;37.880;2023-12-20T12:22:31;98019.88;;;2.96;93.12
76590;BME280;65471;55.908;37.880;2023-12-20T12:25:11;98013.50;;;2.97;93.50
76590;BME280;65471;55.908;37.880;2023-12-20T12:27:40;98014.75;;;2.94;93.63
76590;BME280;65471;55.908;37.880;2023-12-20T12:30:08;98013.63;;;3.02;93.22
76590;BME280;65471;55.908;37.880;2023-12-20T12:32:36;98014.16;;;2.92;93.04
76590;BME280;65471;55.908;37.880;2023-12-20T12:35:04;98021.50;;;2.97;93.18
76590;BME280;65471;55.908;37.880;2023-12-20T12:37:37;98033.44;;;2.94;93.17
76590;BME280;65471;55.908;37.880;2023-12-20T12:40:07;98036.34;;;2.92;93.16
76590;BME280;65471;55.908;37.880;2023-12-20T12:42:37;98041.06;;;2.90;93.27
76590;BME280;65471;55.908;37.880;2023-12-20T12:45:05;98047.03;;;2.92;93.16
76590;BME280;65471;55.908;37.880;2023-12-20T12:47:32;98046.19;;;2.92;93.43
76590;BME280;65471;55.908;37.880;2023-12-20T12:50:00;98051.97;;;2.89;93.45
76590;BME280;65471;55.908;37.880;2023-12-20T12:52:30;98064.16;;;2.85;93.47
76590;BME280;65471;55.908;37.880;2023-12-20T12:54:58;98061.47;;;2.85;93.08
76590;BME280;65471;55.908;37.880;2023-12-20T12:57:25;98069.63;;;2.90;93.34
76590;BME280;65471;55.908;37.880;2023-12-20T12:59:53;98053.63;;;2.90;93.57
76590;BME280;65471;55.908;37.880;2023-12-20T13:02:20;98050.56;;;2.86;93.19
76590;BME280;65471;55.908;37.880;2023-12-20T13:04:47;98058.22;;;2.83;93.34
76590;BME280;65471;55.908;37.880;2023-12-20T13:07:14;98049.41;;;2.82;93.19